createdAt,value
2017-10-09T00:01:05.913Z,99358.63
2017-10-09T00:03:33.340Z,99358.75
2017-10-09T00:06:00.746Z,99361.12
2017-10-09T00:08:28.188Z,99367.47
2017-10-09T00:10:55.602Z,99363.93
2017-10-09T00:13:23.040Z,99373.09
2017-10-09T00:15:50.429Z,99374.44
2017-10-09T00:18:17.860Z,99371.94
2017-10-09T00:20:45.330Z,99378.97
2017-10-09T00:23:12.727Z,99374.46
2017-10-09T00:25:40.170Z,99366.36
2017-10-09T00:28:07.565Z,99376.17
2017-10-09T00:30:34.980Z,99377.20
2017-10-09T00:33:02.368Z,99381.33
2017-10-09T00:35:29.797Z,99380.57
2017-10-09T00:37:57.208Z,99380.69
2017-10-09T00:40:24.609Z,99374.33
2017-10-09T00:42:52.032Z,99376.59
2017-10-09T00:45:19.437Z,99369.81
2017-10-09T00:47:46.871Z,99370.22
2017-10-09T00:50:14.256Z,99362.26
2017-10-09T00:52:41.699Z,99360.52
2017-10-09T00:55:09.115Z,99364.64
2017-10-09T00:57:36.525Z,99363.80
2017-10-09T01:00:03.930Z,99359.42
2017-10-09T01:02:31.352Z,99354.64
2017-10-09T01:04:58.772Z,99357.95
2017-10-09T01:07:26.209Z,99359.83
2017-10-09T01:09:53.663Z,99356.61
2017-10-09T01:12:21.058Z,99354.67
2017-10-09T01:14:48.489Z,99360.91
2017-10-09T01:17:15.884Z,99356.92
2017-10-09T01:19:43.324Z,99354.82
2017-10-09T01:22:10.725Z,99365.84
2017-10-09T01:24:38.172Z,99363.20
2017-10-09T01:27:05.581Z,99360.00
2017-10-09T01:29:32.995Z,99364.53
2017-10-09T01:32:00.414Z,99363.86
2017-10-09T01:34:27.848Z,99367.97
2017-10-09T01:36:55.294Z,99366.39
2017-10-09T01:39:22.694Z,99366.11
2017-10-09T01:41:50.122Z,99363.08
2017-10-09T01:44:17.532Z,99368.90
2017-10-09T01:46:44.952Z,99367.83
2017-10-09T01:49:13.464Z,99367.81
2017-10-09T01:51:40.861Z,99366.38
2017-10-09T01:54:08.291Z,99369.41
2017-10-09T01:56:35.694Z,99371.55
2017-10-09T01:59:03.126Z,99376.45
2017-10-09T02:01:30.534Z,99371.94
2017-10-09T02:03:57.953Z,99375.39
2017-10-09T02:06:25.680Z,99372.73
2017-10-09T02:08:53.182Z,99376.17
2017-10-09T02:11:20.573Z,99368.63
2017-10-09T02:13:47.971Z,99365.86
2017-10-09T02:16:15.427Z,99369.28
2017-10-09T02:18:42.823Z,99369.02
2017-10-09T02:21:10.248Z,99379.38
2017-10-09T02:23:37.657Z,99372.88
2017-10-09T02:26:05.095Z,99374.08
2017-10-09T02:28:32.504Z,99369.55
2017-10-09T02:30:59.949Z,99370.48
2017-10-09T02:33:27.344Z,99368.50
2017-10-09T02:35:54.785Z,99373.14
2017-10-09T02:38:22.218Z,99370.63
2017-10-09T02:40:49.623Z,99372.21
2017-10-09T02:43:17.041Z,99376.84
2017-10-09T02:45:44.448Z,99371.42
2017-10-09T02:48:11.872Z,99374.05
2017-10-09T02:50:39.611Z,99373.53
2017-10-09T02:53:11.478Z,99365.84
2017-10-09T02:55:38.957Z,99367.04
2017-10-09T02:58:06.361Z,99374.08
2017-10-09T03:00:33.797Z,99382.82
2017-10-09T03:03:01.206Z,99374.98
2017-10-09T03:05:28.642Z,99378.30
2017-10-09T03:07:56.083Z,99373.28
2017-10-09T03:10:23.497Z,99369.95
2017-10-09T03:12:50.934Z,99375.78
2017-10-09T03:15:18.347Z,99382.30
2017-10-09T03:17:45.776Z,99377.63
2017-10-09T03:20:13.197Z,99383.60
2017-10-09T03:22:42.332Z,99383.98
2017-10-09T03:25:14.146Z,99384.66
2017-10-09T03:27:42.960Z,99382.00
2017-10-09T03:30:11.264Z,99381.61
2017-10-09T03:32:38.684Z,99383.85
2017-10-09T03:35:06.122Z,99382.80
2017-10-09T03:37:33.549Z,99378.13
2017-10-09T03:40:00.961Z,99387.28
2017-10-09T03:42:28.377Z,99384.91
2017-10-09T03:44:55.801Z,99383.33
2017-10-09T03:47:23.207Z,99383.87
2017-10-09T03:49:50.647Z,99381.09
2017-10-09T03:52:18.031Z,99383.22
2017-10-09T03:54:45.468Z,99372.07
2017-10-09T03:57:12.852Z,99374.32
2017-10-09T03:59:40.280Z,99375.92
2017-10-09T04:02:07.673Z,99373.67
2017-10-09T04:04:35.107Z,99369.17
2017-10-09T04:07:02.528Z,99369.55
2017-10-09T04:09:29.924Z,99366.77
2017-10-09T04:11:57.357Z,99366.90
2017-10-09T04:14:24.753Z,99360.29
2017-10-09T04:16:52.177Z,99361.74
2017-10-09T04:19:19.575Z,99367.84
2017-10-09T04:21:46.999Z,99370.88
2017-10-09T04:24:14.395Z,99369.95
2017-10-09T04:26:41.824Z,99366.10
2017-10-09T04:29:09.820Z,99372.47
2017-10-09T04:31:37.851Z,99373.91
2017-10-09T04:34:06.439Z,99379.11
2017-10-09T04:36:33.843Z,99379.48
2017-10-09T04:39:01.281Z,99384.94
2017-10-09T04:41:28.705Z,99385.98
2017-10-09T04:43:56.142Z,99382.80
2017-10-09T04:46:23.547Z,99382.39
2017-10-09T04:48:50.964Z,99383.87
2017-10-09T04:51:18.389Z,99376.84
2017-10-09T04:53:45.870Z,99378.95
2017-10-09T04:56:13.269Z,99382.28
2017-10-09T04:58:40.713Z,99383.86
2017-10-09T05:01:08.136Z,99388.88
2017-10-09T05:03:35.536Z,99385.84
2017-10-09T05:06:02.957Z,99390.87
2017-10-09T05:08:30.405Z,99394.20
2017-10-09T05:10:57.828Z,99398.70
2017-10-09T05:13:25.255Z,99393.94
2017-10-09T05:15:52.685Z,99392.75
2017-10-09T05:18:20.104Z,99383.20
2017-10-09T05:20:47.556Z,99385.05
2017-10-09T05:23:15.145Z,99385.84
2017-10-09T05:25:42.584Z,99383.06
2017-10-09T05:28:10.037Z,99379.47
2017-10-09T05:30:37.909Z,99386.88
2017-10-09T05:33:05.317Z,99380.25
2017-10-09T05:35:32.789Z,99381.44
2017-10-09T05:38:00.208Z,99392.56
2017-10-09T05:40:27.658Z,99391.66
2017-10-09T05:42:55.091Z,99396.41
2017-10-09T05:45:22.506Z,99394.29
2017-10-09T05:47:50.004Z,99387.27
2017-10-09T05:50:17.561Z,99390.97
2017-10-09T05:52:44.960Z,99395.89
2017-10-09T05:55:12.382Z,99398.41
2017-10-09T05:57:39.870Z,99391.01
2017-10-09T06:00:09.105Z,99398.03
2017-10-09T06:02:37.063Z,99392.73
2017-10-09T06:05:05.194Z,99395.38
2017-10-09T06:07:32.649Z,99398.03
2017-10-09T06:10:00.070Z,99399.08
2017-10-09T06:12:27.504Z,99396.16
2017-10-09T06:14:54.980Z,99394.84
2017-10-09T06:17:22.867Z,99393.23
2017-10-09T06:19:50.264Z,99395.73
2017-10-09T06:22:17.764Z,99396.41
2017-10-09T06:24:45.176Z,99396.42
2017-10-09T06:27:12.613Z,99394.83
2017-10-09T06:29:40.038Z,99389.39
2017-10-09T06:32:07.455Z,99383.30
2017-10-09T06:34:34.884Z,99386.34
2017-10-09T06:37:02.372Z,99392.03
2017-10-09T06:39:29.791Z,99387.00
2017-10-09T06:41:57.212Z,99390.57
2017-10-09T06:44:24.651Z,99388.95
2017-10-09T06:46:52.087Z,99396.16
2017-10-09T06:49:20.440Z,99395.64
2017-10-09T06:51:47.842Z,99402.27
2017-10-09T06:54:15.872Z,99406.35
2017-10-09T06:56:43.344Z,99404.75
2017-10-09T06:59:10.886Z,99405.93
2017-10-09T07:01:38.368Z,99411.25
2017-10-09T07:04:05.794Z,99410.73
2017-10-09T07:06:33.264Z,99416.16
2017-10-09T07:09:00.688Z,99412.03
2017-10-09T07:11:28.700Z,99408.98
2017-10-09T07:13:56.445Z,99412.58
2017-10-09T07:16:23.917Z,99417.52
2017-10-09T07:18:51.365Z,99414.33
2017-10-09T07:21:18.961Z,99423.22
2017-10-09T07:23:46.420Z,99417.94
2017-10-09T07:26:13.896Z,99401.50
2017-10-09T07:28:41.393Z,99421.92
2017-10-09T07:31:08.794Z,99424.42
2017-10-09T07:33:36.225Z,99420.87
2017-10-09T07:36:03.699Z,99427.50
2017-10-09T07:38:31.141Z,99430.53
2017-10-09T07:40:59.570Z,99426.98
2017-10-09T07:43:27.000Z,99432.81
2017-10-09T07:45:54.445Z,99419.42
2017-10-09T07:48:21.937Z,99427.50
2017-10-09T07:50:49.346Z,99429.86
2017-10-09T07:53:16.777Z,99429.75
2017-10-09T07:55:44.231Z,99433.60
2017-10-09T07:58:11.619Z,99430.13
2017-10-09T08:00:39.057Z,99433.55
2017-10-09T08:03:06.493Z,99430.25
2017-10-09T08:05:33.926Z,99433.19
2017-10-09T08:08:01.400Z,99433.46
2017-10-09T08:10:28.843Z,99430.65
2017-10-09T08:12:56.277Z,99431.20
2017-10-09T08:15:24.522Z,99424.81
2017-10-09T08:17:52.036Z,99428.40
2017-10-09T08:20:19.485Z,99433.30
2017-10-09T08:22:46.957Z,99431.33
2017-10-09T08:25:14.405Z,99430.65
2017-10-09T08:27:41.829Z,99426.70
2017-10-09T08:30:09.864Z,99430.53
2017-10-09T08:32:37.311Z,99434.52
2017-10-09T08:35:04.750Z,99444.45
2017-10-09T08:37:32.220Z,99433.91
2017-10-09T08:45:05.276Z,99434.95
2017-10-09T08:47:32.765Z,99435.59
2017-10-09T08:50:00.262Z,99439.69
2017-10-09T08:52:27.716Z,99443.03
2017-10-09T08:54:55.212Z,99442.98
2017-10-09T08:57:22.689Z,99448.19
2017-10-09T09:02:25.975Z,99438.06
2017-10-09T09:07:26.369Z,99435.56
2017-10-09T09:14:59.303Z,99442.73
2017-10-09T09:22:32.368Z,99438.06
2017-10-09T09:27:32.567Z,99441.54
2017-10-09T09:30:00.115Z,99443.09
2017-10-09T09:32:27.636Z,99447.75
2017-10-09T09:40:00.707Z,99437.77
2017-10-09T09:42:28.198Z,99442.88
2017-10-09T09:44:55.694Z,99442.67
2017-10-09T09:47:23.182Z,99443.78
2017-10-09T09:49:50.636Z,99438.91
2017-10-09T09:52:18.125Z,99437.80
2017-10-09T09:54:45.597Z,99439.86
2017-10-09T09:57:13.089Z,99439.67
2017-10-09T09:59:41.440Z,99450.27
2017-10-09T10:04:42.568Z,99450.69
2017-10-09T10:07:10.026Z,99437.75
2017-10-09T10:09:37.447Z,99450.63
2017-10-09T10:12:04.848Z,99450.63
2017-10-09T10:14:32.283Z,99448.06
2017-10-09T10:16:59.696Z,99452.87
2017-10-09T10:19:27.159Z,99451.25
2017-10-09T10:21:54.555Z,99450.92
2017-10-09T10:24:22.021Z,99451.06
2017-10-09T10:26:49.420Z,99451.19
2017-10-09T10:29:16.845Z,99452.92
2017-10-09T10:31:44.274Z,99445.42
2017-10-09T10:34:11.772Z,99446.20
2017-10-09T10:36:39.184Z,99445.58
2017-10-09T10:39:06.596Z,99450.92
2017-10-09T10:41:34.027Z,99446.14
2017-10-09T10:44:01.774Z,99438.05
2017-10-09T10:46:30.401Z,99440.65
2017-10-09T10:48:57.809Z,99438.72
2017-10-09T10:51:25.249Z,99432.59
2017-10-09T10:53:52.698Z,99440.73
2017-10-09T10:56:20.153Z,99436.80
2017-10-09T10:58:47.538Z,99436.17
2017-10-09T11:01:14.976Z,99429.22
2017-10-09T11:03:42.391Z,99425.11
2017-10-09T11:06:09.895Z,99425.11
2017-10-09T11:08:37.339Z,99418.93
2017-10-09T11:11:04.779Z,99406.53
2017-10-09T11:13:32.233Z,99419.97
2017-10-09T11:15:59.734Z,99421.44
2017-10-09T11:18:27.160Z,99416.69
2017-10-09T11:20:54.569Z,99406.83
2017-10-09T11:23:22.681Z,99411.49
2017-10-09T11:25:50.129Z,99409.22
2017-10-09T11:28:17.537Z,99398.31
2017-10-09T11:30:44.969Z,99407.44
2017-10-09T11:33:12.379Z,99404.72
2017-10-09T11:35:39.833Z,99402.59
2017-10-09T11:38:07.622Z,99403.25
2017-10-09T11:40:35.072Z,99404.91
2017-10-09T11:43:02.476Z,99399.98
2017-10-09T11:45:29.910Z,99399.82
2017-10-09T11:47:57.472Z,99399.29
2017-10-09T11:50:24.957Z,99396.72
2017-10-09T11:52:52.355Z,99394.05
2017-10-09T11:55:19.781Z,99384.75
2017-10-09T11:57:48.012Z,99391.62
2017-10-09T12:00:15.399Z,99391.75
2017-10-09T12:02:42.852Z,99393.82
2017-10-09T12:05:10.276Z,99387.05
2017-10-09T12:07:37.734Z,99378.58
2017-10-09T12:10:05.156Z,99379.24
2017-10-09T12:12:32.584Z,99374.74
2017-10-09T12:15:00.115Z,99372.67
2017-10-09T12:17:27.549Z,99374.46
2017-10-09T12:19:54.945Z,99366.16
2017-10-09T12:22:22.429Z,99370.73
2017-10-09T12:24:49.844Z,99367.61
2017-10-09T12:27:17.295Z,99370.86
2017-10-09T12:29:44.710Z,99363.20
2017-10-09T12:32:12.178Z,99368.06
2017-10-09T12:34:39.637Z,99357.44
2017-10-09T12:37:07.050Z,99369.81
2017-10-09T12:39:34.472Z,99362.13
2017-10-09T12:42:01.930Z,99356.47
2017-10-09T12:44:29.333Z,99348.69
2017-10-09T12:46:57.544Z,99355.05
2017-10-09T12:49:25.272Z,99351.44
2017-10-09T12:51:52.680Z,99347.44
2017-10-09T12:54:20.138Z,99348.09
2017-10-09T12:56:47.584Z,99341.64
2017-10-09T12:59:14.989Z,99337.77
2017-10-09T13:01:42.386Z,99328.45
2017-10-09T13:04:09.861Z,99330.83
2017-10-09T13:06:37.348Z,99330.06
2017-10-09T13:09:04.817Z,99321.98
2017-10-09T13:11:32.279Z,99330.42
2017-10-09T13:13:59.696Z,99324.18
2017-10-09T13:16:27.136Z,99316.09
2017-10-09T13:18:55.185Z,99316.25
2017-10-09T13:21:22.590Z,99317.59
2017-10-09T13:23:50.106Z,99318.80
2017-10-09T13:26:17.600Z,99321.46
2017-10-09T13:28:45.022Z,99313.70
2017-10-09T13:31:12.462Z,99314.48
2017-10-09T13:33:39.868Z,99304.53
2017-10-09T13:36:07.289Z,99305.42
2017-10-09T13:38:34.775Z,99301.12
2017-10-09T13:41:02.242Z,99295.95
2017-10-09T13:43:29.674Z,99302.45
2017-10-09T13:51:02.680Z,99309.31
2017-10-09T13:53:30.169Z,99303.41
2017-10-09T13:58:30.462Z,99305.84
2017-10-09T14:03:30.768Z,99306.02
2017-10-09T14:18:44.000Z,99313.05
2017-10-09T14:21:11.508Z,99309.89
2017-10-09T14:23:38.990Z,99314.33
2017-10-09T14:28:39.162Z,99303.69
2017-10-09T14:31:06.773Z,99299.92
2017-10-09T14:40:57.018Z,99283.03
2017-10-09T14:43:24.554Z,99293.88
2017-10-09T14:45:52.064Z,99290.66
2017-10-09T14:48:19.584Z,99292.01
2017-10-09T14:50:47.115Z,99284.78
2017-10-09T14:53:14.637Z,99284.95
2017-10-09T14:55:42.089Z,99281.00
2017-10-09T14:58:09.568Z,99278.08
2017-10-09T15:00:37.098Z,99279.78
2017-10-09T15:03:04.619Z,99277.87
2017-10-09T15:05:32.139Z,99279.51
2017-10-09T15:07:59.611Z,99275.57
2017-10-09T15:10:27.126Z,99271.45
2017-10-09T15:12:54.581Z,99263.96
2017-10-09T15:15:22.082Z,99268.27
2017-10-09T15:17:49.533Z,99268.39
2017-10-09T15:20:17.022Z,99261.52
2017-10-09T15:22:44.514Z,99266.95
2017-10-09T15:25:12.061Z,99267.36
2017-10-09T15:27:39.546Z,99264.94
2017-10-09T15:30:07.113Z,99261.30
2017-10-09T15:32:34.647Z,99259.00
2017-10-09T15:35:02.175Z,99268.59
2017-10-09T15:37:29.686Z,99267.47
2017-10-09T15:39:57.142Z,99274.52
2017-10-09T15:42:24.619Z,99280.42
2017-10-09T15:44:52.099Z,99283.19
2017-10-09T15:47:19.556Z,99280.80
2017-10-09T15:49:47.053Z,99275.36
2017-10-09T15:52:14.514Z,99286.73
2017-10-09T15:54:42.155Z,99279.56
2017-10-09T15:57:09.601Z,99284.92
2017-10-09T15:59:37.066Z,99285.59
2017-10-09T16:02:04.612Z,99288.59
2017-10-09T16:04:32.105Z,99285.03
2017-10-09T16:06:59.705Z,99287.03
2017-10-09T16:09:27.212Z,99282.06
2017-10-09T16:11:54.671Z,99288.62
2017-10-09T16:14:22.194Z,99285.46
2017-10-09T16:16:49.686Z,99282.05
2017-10-09T16:19:17.163Z,99285.56
2017-10-09T16:21:44.655Z,99285.56
2017-10-09T16:24:12.163Z,99287.13
2017-10-09T16:26:39.638Z,99291.41
2017-10-09T16:29:07.158Z,99287.45
2017-10-09T16:31:34.712Z,99283.31
2017-10-09T16:34:02.241Z,99278.34
2017-10-09T16:36:29.822Z,99286.45
2017-10-09T16:38:57.293Z,99289.58
2017-10-09T16:41:25.020Z,99286.47
2017-10-09T16:43:52.758Z,99278.03
2017-10-09T16:46:20.291Z,99286.72
2017-10-09T16:48:47.759Z,99283.61
2017-10-09T16:51:15.289Z,99290.02
2017-10-09T16:53:42.748Z,99296.58
2017-10-09T16:56:10.248Z,99299.19
2017-10-09T16:58:37.762Z,99296.47
2017-10-09T17:01:05.239Z,99295.70
2017-10-09T17:03:32.702Z,99297.41
2017-10-09T17:06:00.230Z,99297.58
2017-10-09T17:08:27.706Z,99298.44
2017-10-09T17:10:55.201Z,99297.50
2017-10-09T17:13:22.697Z,99302.33
2017-10-09T17:15:50.166Z,99299.59
2017-10-09T17:18:17.650Z,99310.94
2017-10-09T17:20:45.138Z,99307.34
2017-10-09T17:23:12.637Z,99303.50
2017-10-09T17:25:40.095Z,99296.63
2017-10-09T17:28:07.630Z,99300.55
2017-10-09T17:30:35.122Z,99298.53
2017-10-09T17:33:02.574Z,99290.08
2017-10-09T17:35:30.093Z,99288.30
2017-10-09T17:37:57.596Z,99293.97
2017-10-09T17:40:25.093Z,99292.19
2017-10-09T17:42:52.572Z,99285.72
2017-10-09T17:45:20.058Z,99279.30
2017-10-09T17:47:47.517Z,99286.03
2017-10-09T17:50:15.001Z,99288.72
2017-10-09T17:52:42.483Z,99289.28
2017-10-09T17:55:09.958Z,99291.97
2017-10-09T17:57:37.454Z,99294.38
2017-10-09T18:00:04.922Z,99294.03
2017-10-09T18:02:32.431Z,99298.40
2017-10-09T18:05:00.138Z,99295.09
2017-10-09T18:07:27.630Z,99296.27
2017-10-09T18:09:55.090Z,99289.81
2017-10-09T18:12:22.602Z,99288.39
2017-10-09T18:14:50.561Z,99294.50
2017-10-09T18:17:18.067Z,99290.93
2017-10-09T18:19:45.564Z,99296.89
2017-10-09T18:22:13.025Z,99294.92
2017-10-09T18:24:40.490Z,99295.81
2017-10-09T18:27:07.960Z,99288.86
2017-10-09T18:29:35.476Z,99297.27
2017-10-09T18:32:02.920Z,99299.13
2017-10-09T18:34:30.423Z,99301.69
2017-10-09T18:36:57.869Z,99296.86
2017-10-09T18:39:25.583Z,99298.14
2017-10-09T18:41:53.033Z,99303.55
2017-10-09T18:44:20.521Z,99301.05
2017-10-09T18:46:47.982Z,99300.09
2017-10-09T18:49:15.468Z,99299.07
2017-10-09T18:51:42.950Z,99280.67
2017-10-09T18:54:10.447Z,99295.05
2017-10-09T18:56:37.930Z,99298.04
2017-10-09T18:59:05.370Z,99304.50
2017-10-09T19:01:32.898Z,99297.74
2017-10-09T19:04:00.361Z,99296.02
2017-10-09T19:06:27.829Z,99298.16
2017-10-09T19:08:55.318Z,99292.47
2017-10-09T19:11:22.778Z,99290.36
2017-10-09T19:13:50.313Z,99293.42
2017-10-09T19:16:17.785Z,99291.30
2017-10-09T19:18:45.251Z,99290.27
2017-10-09T19:21:12.733Z,99290.13
2017-10-09T19:23:40.197Z,99292.41
2017-10-09T19:26:07.669Z,99291.61
2017-10-09T19:28:35.128Z,99267.55
2017-10-09T19:31:02.643Z,99295.97
2017-10-09T19:33:30.171Z,99294.52
2017-10-09T19:35:57.674Z,99296.78
2017-10-09T19:38:25.214Z,99301.41
2017-10-09T19:40:52.689Z,99300.98
2017-10-09T19:43:20.232Z,99303.66
2017-10-09T19:45:47.707Z,99307.48
2017-10-09T19:48:15.192Z,99305.02
2017-10-09T19:50:42.648Z,99299.59
2017-10-09T19:53:10.154Z,99301.38
2017-10-09T19:55:37.632Z,99305.27
2017-10-09T19:58:05.149Z,99306.48
2017-10-09T20:00:32.636Z,99303.67
2017-10-09T20:03:00.103Z,99303.12
2017-10-09T20:05:27.589Z,99309.41
2017-10-09T20:07:55.210Z,99309.78
2017-10-09T20:10:22.742Z,99303.58
2017-10-09T20:12:50.349Z,99307.73
2017-10-09T20:15:17.841Z,99306.63
2017-10-09T20:17:46.503Z,99303.30
2017-10-09T20:20:14.077Z,99302.66
2017-10-09T20:22:41.568Z,99300.39
2017-10-09T20:25:09.101Z,99296.34
2017-10-09T20:27:36.883Z,99303.97
2017-10-09T20:30:04.403Z,99302.53
2017-10-09T20:32:31.892Z,99305.83
2017-10-09T20:34:59.420Z,99298.77
2017-10-09T20:37:27.746Z,99300.26
2017-10-09T20:39:55.212Z,99302.76
2017-10-09T20:42:22.689Z,99302.31
2017-10-09T20:44:50.140Z,99300.70
2017-10-09T20:47:17.654Z,99298.03
2017-10-09T20:49:45.106Z,99297.94
2017-10-09T20:52:12.608Z,99298.87
2017-10-09T20:54:40.074Z,99299.45
2017-10-09T20:57:07.525Z,99299.33
2017-10-09T20:59:35.006Z,99301.52
2017-10-09T21:02:02.470Z,99297.08
2017-10-09T21:04:29.976Z,99292.80
2017-10-09T21:06:57.445Z,99293.44
2017-10-09T21:11:51.693Z,99292.94
2017-10-09T21:14:19.181Z,99293.85
2017-10-09T21:16:46.630Z,99294.78
2017-10-09T21:19:14.068Z,99294.64
2017-10-09T21:21:41.553Z,99298.87
2017-10-09T21:24:09.017Z,99295.66
2017-10-09T21:26:36.501Z,99290.38
2017-10-09T21:29:03.961Z,99297.25
2017-10-09T21:31:31.438Z,99298.52
2017-10-09T21:33:58.902Z,99298.45
2017-10-09T21:36:26.378Z,99294.36
2017-10-09T21:38:53.835Z,99296.75
2017-10-09T21:41:21.345Z,99298.06
2017-10-09T21:43:48.864Z,99301.42
2017-10-09T21:46:16.329Z,99297.45
2017-10-09T21:48:43.818Z,99299.97
2017-10-09T21:51:11.269Z,99299.69
2017-10-09T21:53:38.751Z,99298.17
2017-10-09T21:56:06.242Z,99296.09
2017-10-09T21:58:33.710Z,99287.90
2017-10-09T22:01:01.161Z,99288.43
2017-10-09T22:03:28.634Z,99284.66
2017-10-09T22:05:56.141Z,99285.65
2017-10-09T22:08:23.597Z,99277.81
2017-10-09T22:10:51.072Z,99280.27
2017-10-09T22:13:18.522Z,99277.87
2017-10-09T22:15:46.015Z,99275.25
2017-10-09T22:18:13.468Z,99274.39
2017-10-09T22:20:40.965Z,99266.54
2017-10-09T22:23:08.433Z,99272.70
2017-10-09T22:25:35.922Z,99265.00
2017-10-09T22:28:03.397Z,99266.16
2017-10-09T22:30:30.890Z,99277.73
2017-10-09T22:32:58.857Z,99270.80
2017-10-09T22:35:26.333Z,99270.97
2017-10-09T22:37:53.834Z,99269.35
2017-10-09T22:40:21.865Z,99269.94
2017-10-09T22:42:49.325Z,99266.06
2017-10-09T22:45:16.787Z,99260.38
2017-10-09T22:47:44.264Z,99261.59
2017-10-09T22:50:11.721Z,99264.20
2017-10-09T22:52:39.205Z,99265.34
2017-10-09T22:55:06.658Z,99254.63
2017-10-09T22:57:34.142Z,99262.81
2017-10-09T23:00:01.594Z,99254.84
2017-10-09T23:02:29.074Z,99254.70
2017-10-09T23:04:56.543Z,99258.18
2017-10-09T23:07:24.091Z,99258.30
2017-10-09T23:09:51.585Z,99255.34
2017-10-09T23:12:19.060Z,99257.38
2017-10-09T23:14:46.537Z,99255.38
2017-10-09T23:17:13.980Z,99250.92
2017-10-09T23:19:41.469Z,99249.02
2017-10-09T23:22:08.929Z,99246.45
2017-10-09T23:24:36.413Z,99243.88
2017-10-09T23:27:03.857Z,99244.17
2017-10-09T23:29:31.334Z,99245.61
2017-10-09T23:31:58.784Z,99247.36
2017-10-09T23:34:26.269Z,99247.65
2017-10-09T23:36:53.795Z,99245.42
2017-10-09T23:39:21.327Z,99240.55
2017-10-09T23:41:48.798Z,99244.43
2017-10-09T23:44:16.245Z,99239.80
2017-10-09T23:46:43.742Z,99241.85
2017-10-09T23:49:11.211Z,99237.85
2017-10-09T23:51:38.693Z,99230.81
2017-10-09T23:54:06.154Z,99229.39
2017-10-09T23:56:33.638Z,99223.86
2017-10-09T23:59:01.097Z,99223.58
